Terminal Aerodrome Forecast
Issued by NWS Cleveland, OH

Home | Current Version | Previous Version | Text Only | Print | Product List | Glossary Off
Versions: 1 2 3 4 5 6 7 8 9 10 11 12 13 14 15 16 17 18 19 20 21 22

000
FTUS41 KCLE 232200 AAA
TAFMFD
TAF AMD
KMFD 232215Z 2322/2418 16010KT P6SM VCSH SCT025 OVC045
     FM240000 13014G22KT 4SM -SHRA SCT008 OVC012
     FM240200 14018G28KT 2SM -SHRA OVC006
     FM241000 18020G30KT P6SM VCSH BKN012 OVC020=

USA.gov is the U.S. government's official web portal to all federal, state and local government web resources and services.